Main page
METAR-TAF:

METAR-TAF

Airports :

Al Hoceima, Morocco

Cherif Al Idrissi Airport

latitude: 35-11N, longitude: 003-51W, elevation: 27 m

Current weather observation

The report was made 30 minutes ago, at 07:00 UTC
Wind 4 kt from the South
Temperature 10°C
Humidity 93%
Pressure 1017 hPa
Visibility 10 km or more
Few clouds at a height of 1300 ft

METAR: GMTA 220700Z 18004KT 9999 FEW013 10/09 Q1017 NOSIG

Time: 07:30 (07:30 UTC)

Forecast

The report was made 2 hours and 30 minutes ago, at 05:00 UTC
Forecast valid from 22 at 06 UTC to 23 at 12 UTC
Wind 8 kt from the South/Southeast
Visibility 10 km or more
no clouds below 1500 m and no cumulonimbus

TAF: GMTA 220500Z 2206/2312 16008KT CAVOK

Weather observations and forecasts of more than 4000 airports (METAR and TAF reports).

The available stations are represented by yellow and red dots on the map.

Hover mouse over dot to see the name of the station.

Then click to see weather observations and forecasts.

To change the map : click on the green buttons with a black cross to zoom in, on the green button with a dash to zoom out, or on the green arrows for adjacent maps.


METAR-TAF: